Airfield :
LOGIN :

Register | Disclaimer

   EN    FR    IT 

 










Legend :    VFR   Marginal VFR   IFR   Intensive IFR   Very Intensive IFR
Visi :
Ceiling :
>= 8 km
>= 3000ft
5 to 8 km
1000 to 3000 ft
1500m to 5 km
500 to 1000 ft
800 to 1500m
200 to 500 ft
< 800m
< 200 ft
Symbols :   Thunderstorms  Fog  Heavy snow  Heavy precipitations  Wind > 20 kt
SIGMETs :     Misc.  Thunderstorms  Icing  Turbulence  Mountain Waves  Volcanic Ashes






- Airport Elevation : 137 ft


LIPS - Istrana AFB Treviso

CURRENT METAR :
  • 230955Z 07006KT 9999 SCT030 BKN060 17/14 Q1022 RMK BKN VIS MIN 9999 WIND THR26 01006KT WIND THR08 06008KT BLK BLU

EXPIRED METARs :
  • 230855Z 08005KT 7000 SCT030 BKN080 17/15 Q1021 RMK BKN VIS MIN 7000 WIND THR26 03005KT WIND THR08 07006KT BLK WHT
  • 230755Z 01003KT 3500 BR NSC 14/12 Q1021 RMK SKC VIS MIN 3500 WIND THR26 33003KT WIND THR08 32002KT BLK YLO

TAF TAF LIPS
Valid from the 23 at 09:00 until the 23 at 18:00 UTC


230800Z 2309/2318 06008KT 7000 SCT040
TEMPO 2309/2311 VRB03KT 3000 BR



MET'MAP, your aeronautical weather chart ! - Copyright ORBIFLY December 2007 - Disclaimer

ORBIFLY MET'MAP TEAM :

Programming & Development : Alexandra Zaïnal
Concept & original design : Baudouin d'Aumeries
Assistance for programming : Marc-Olivier Méhu
Technical & hardware support : Manuel Goepfert

Contact : metmap@orbifly.com




SOURCES & CREDITS :

   NOAA